sensor_id;sensor_type;location;lat;lon;timestamp;noise_LAeq;noise_LA_min;noise_LA_max;noise_LA01;noise_LA95
74214;Laerm;62576;55.694;37.494;2022-11-20T00:02:18;59.14;54.48;73.34;;
74214;Laerm;62576;55.694;37.494;2022-11-20T00:04:49;57.71;54.48;63.52;;
74214;Laerm;62576;55.694;37.494;2022-11-20T00:07:20;57.98;54.84;64.64;;
74214;Laerm;62576;55.694;37.494;2022-11-20T00:09:49;66.28;54.74;82.72;;
74214;Laerm;62576;55.694;37.494;2022-11-20T00:12:19;57.32;54.34;63.64;;
74214;Laerm;62576;55.694;37.494;2022-11-20T00:14:49;57.50;54.33;67.52;;
74214;Laerm;62576;55.694;37.494;2022-11-20T00:17:19;56.61;54.45;62.96;;
74214;Laerm;62576;55.694;37.494;2022-11-20T00:19:50;56.34;54.21;62.23;;
74214;Laerm;62576;55.694;37.494;2022-11-20T00:22:20;57.17;54.30;65.70;;
74214;Laerm;62576;55.694;37.494;2022-11-20T00:24:50;57.05;54.23;63.53;;
74214;Laerm;62576;55.694;37.494;2022-11-20T00:27:20;56.69;54.50;65.31;;
74214;Laerm;62576;55.694;37.494;2022-11-20T00:29:50;56.51;54.14;63.98;;
74214;Laerm;62576;55.694;37.494;2022-11-20T00:32:19;55.95;54.28;58.94;;
74214;Laerm;62576;55.694;37.494;2022-11-20T00:34:51;56.00;54.23;60.21;;
74214;Laerm;62576;55.694;37.494;2022-11-20T00:37:20;56.14;54.07;61.22;;
74214;Laerm;62576;55.694;37.494;2022-11-20T00:39:47;59.44;54.14;72.91;;
74214;Laerm;62576;55.694;37.494;2022-11-20T00:42:19;57.64;54.33;70.56;;
74214;Laerm;62576;55.694;37.494;2022-11-20T00:44:49;56.95;54.25;68.96;;
74214;Laerm;62576;55.694;37.494;2022-11-20T00:47:19;56.94;54.84;62.26;;
74214;Laerm;62576;55.694;37.494;2022-11-20T00:49:49;57.40;54.41;64.12;;
74214;Laerm;62576;55.694;37.494;2022-11-20T00:52:20;56.61;54.56;63.28;;
74214;Laerm;62576;55.694;37.494;2022-11-20T00:54:50;58.60;54.64;74.31;;
74214;Laerm;62576;55.694;37.494;2022-11-20T00:57:20;60.90;54.67;72.58;;
74214;Laerm;62576;55.694;37.494;2022-11-20T00:59:50;56.55;54.41;60.86;;
74214;Laerm;62576;55.694;37.494;2022-11-20T01:02:20;56.45;54.28;60.78;;
74214;Laerm;62576;55.694;37.494;2022-11-20T01:04:50;55.99;53.87;61.38;;
74214;Laerm;62576;55.694;37.494;2022-11-20T01:07:21;63.75;54.30;85.34;;
74214;Laerm;62576;55.694;37.494;2022-11-20T01:09:51;58.01;54.21;70.96;;
74214;Laerm;62576;55.694;37.494;2022-11-20T01:12:21;66.47;54.40;91.51;;
74214;Laerm;62576;55.694;37.494;2022-11-20T01:14:51;56.79;54.27;62.34;;
74214;Laerm;62576;55.694;37.494;2022-11-20T01:17:21;56.56;54.55;64.04;;
74214;Laerm;62576;55.694;37.494;2022-11-20T01:19:51;56.26;54.47;61.78;;
74214;Laerm;62576;55.694;37.494;2022-11-20T01:22:22;63.69;54.07;88.02;;
74214;Laerm;62576;55.694;37.494;2022-11-20T01:24:52;57.87;54.31;72.48;;
74214;Laerm;62576;55.694;37.494;2022-11-20T01:27:22;56.69;54.56;68.78;;
74214;Laerm;62576;55.694;37.494;2022-11-20T01:29:51;57.44;54.21;64.01;;
74214;Laerm;62576;55.694;37.494;2022-11-20T01:32:21;56.20;54.27;63.08;;
74214;Laerm;62576;55.694;37.494;2022-11-20T01:34:51;55.85;54.17;61.13;;
74214;Laerm;62576;55.694;37.494;2022-11-20T01:37:22;56.14;54.12;58.59;;
74214;Laerm;62576;55.694;37.494;2022-11-20T01:39:49;56.40;54.11;62.47;;
74214;Laerm;62576;55.694;37.494;2022-11-20T01:42:19;56.72;54.50;62.76;;
74214;Laerm;62576;55.694;37.494;2022-11-20T01:48:10;55.74;54.30;60.07;;
74214;Laerm;62576;55.694;37.494;2022-11-20T01:50:42;56.31;54.21;61.72;;
74214;Laerm;62576;55.694;37.494;2022-11-20T01:53:12;55.78;54.20;62.79;;
74214;Laerm;62576;55.694;37.494;2022-11-20T01:55:47;55.81;54.05;61.13;;
74214;Laerm;62576;55.694;37.494;2022-11-20T01:58:21;55.67;54.02;60.08;;
74214;Laerm;62576;55.694;37.494;2022-11-20T02:00:52;59.69;54.50;71.35;;
74214;Laerm;62576;55.694;37.494;2022-11-20T02:03:22;56.76;54.56;66.48;;
74214;Laerm;62576;55.694;37.494;2022-11-20T02:05:57;56.68;54.15;62.12;;
74214;Laerm;62576;55.694;37.494;2022-11-20T02:08:32;57.66;54.43;63.13;;
74214;Laerm;62576;55.694;37.494;2022-11-20T02:11:02;56.18;54.40;60.89;;
74214;Laerm;62576;55.694;37.494;2022-11-20T02:13:33;55.72;54.26;59.71;;
74214;Laerm;62576;55.694;37.494;2022-11-20T02:16:18;56.46;54.33;66.49;;
74214;Laerm;62576;55.694;37.494;2022-11-20T02:18:49;60.95;54.38;74.18;;
74214;Laerm;62576;55.694;37.494;2022-11-20T02:21:28;57.06;54.57;62.24;;
74214;Laerm;62576;55.694;37.494;2022-11-20T02:24:06;58.03;54.47;67.18;;
74214;Laerm;62576;55.694;37.494;2022-11-20T02:26:42;61.74;57.51;67.68;;
74214;Laerm;62576;55.694;37.494;2022-11-20T02:29:16;57.05;54.38;63.52;;
74214;Laerm;62576;55.694;37.494;2022-11-20T02:31:49;57.13;54.42;61.52;;
74214;Laerm;62576;55.694;37.494;2022-11-20T02:34:18;57.79;54.88;69.43;;
74214;Laerm;62576;55.694;37.494;2022-11-20T02:36:49;57.30;54.41;63.73;;
74214;Laerm;62576;55.694;37.494;2022-11-20T02:39:24;58.89;54.93;66.73;;
74214;Laerm;62576;55.694;37.494;2022-11-20T02:41:56;57.54;54.33;64.30;;
74214;Laerm;62576;55.694;37.494;2022-11-20T02:44:26;57.60;54.57;66.15;;
74214;Laerm;62576;55.694;37.494;2022-11-20T02:46:57;57.77;54.52;66.97;;
74214;Laerm;62576;55.694;37.494;2022-11-20T02:49:27;58.50;54.83;68.93;;
74214;Laerm;62576;55.694;37.494;2022-11-20T02:51:57;59.38;54.96;65.69;;
74214;Laerm;62576;55.694;37.494;2022-11-20T02:54:28;58.46;54.78;65.41;;
74214;Laerm;62576;55.694;37.494;2022-11-20T02:56:59;57.95;55.00;63.86;;
74214;Laerm;62576;55.694;37.494;2022-11-20T02:59:28;57.85;54.59;66.08;;
74214;Laerm;62576;55.694;37.494;2022-11-20T03:01:58;58.21;54.72;64.65;;
74214;Laerm;62576;55.694;37.494;2022-11-20T03:04:28;57.37;54.39;64.29;;
74214;Laerm;62576;55.694;37.494;2022-11-20T03:06:58;60.14;54.81;67.62;;
74214;Laerm;62576;55.694;37.494;2022-11-20T03:09:29;61.55;55.25;72.12;;
74214;Laerm;62576;55.694;37.494;2022-11-20T03:11:59;59.18;55.06;69.18;;
74214;Laerm;62576;55.694;37.494;2022-11-20T03:14:29;59.62;55.25;67.16;;
74214;Laerm;62576;55.694;37.494;2022-11-20T03:16:59;58.93;54.73;65.73;;
74214;Laerm;62576;55.694;37.494;2022-11-20T03:19:29;61.56;55.03;73.59;;
74214;Laerm;62576;55.694;37.494;2022-11-20T03:21:59;60.54;56.36;67.47;;
74214;Laerm;62576;55.694;37.494;2022-11-20T03:24:30;60.80;55.79;68.10;;
74214;Laerm;62576;55.694;37.494;2022-11-20T03:27:00;61.11;55.39;70.98;;
74214;Laerm;62576;55.694;37.494;2022-11-20T03:29:30;59.47;55.08;68.79;;
74214;Laerm;62576;55.694;37.494;2022-11-20T03:31:59;60.27;55.19;68.85;;
74214;Laerm;62576;55.694;37.494;2022-11-20T03:34:29;62.36;55.85;71.65;;
74214;Laerm;62576;55.694;37.494;2022-11-20T03:36:59;60.66;55.93;67.51;;
74214;Laerm;62576;55.694;37.494;2022-11-20T03:39:30;61.52;56.34;68.08;;
74214;Laerm;62576;55.694;37.494;2022-11-20T03:42:00;60.07;55.37;68.84;;
74214;Laerm;62576;55.694;37.494;2022-11-20T03:44:30;60.44;55.30;67.68;;
74214;Laerm;62576;55.694;37.494;2022-11-20T03:47:00;60.32;55.05;68.74;;
74214;Laerm;62576;55.694;37.494;2022-11-20T03:49:29;59.98;55.62;66.16;;
74214;Laerm;62576;55.694;37.494;2022-11-20T03:51:59;59.94;55.01;65.42;;
74214;Laerm;62576;55.694;37.494;2022-11-20T03:54:30;60.48;55.35;67.45;;
74214;Laerm;62576;55.694;37.494;2022-11-20T03:57:00;60.85;54.81;70.02;;
74214;Laerm;62576;55.694;37.494;2022-11-20T03:59:30;59.66;54.83;66.45;;
74214;Laerm;62576;55.694;37.494;2022-11-20T04:02:00;61.63;56.50;66.29;;
74214;Laerm;62576;55.694;37.494;2022-11-20T04:04:30;59.15;55.25;67.13;;
74214;Laerm;62576;55.694;37.494;2022-11-20T04:06:59;59.28;55.05;66.53;;
74214;Laerm;62576;55.694;37.494;2022-11-20T04:09:31;59.42;55.24;65.45;;
74214;Laerm;62576;55.694;37.494;2022-11-20T04:12:01;59.74;55.37;66.82;;
74214;Laerm;62576;55.694;37.494;2022-11-20T04:14:31;59.72;55.40;65.80;;
74214;Laerm;62576;55.694;37.494;2022-11-20T04:17:01;61.42;55.25;69.17;;
74214;Laerm;62576;55.694;37.494;2022-11-20T04:19:31;59.16;55.87;64.21;;
74214;Laerm;62576;55.694;37.494;2022-11-20T04:22:01;60.95;55.46;68.75;;
74214;Laerm;62576;55.694;37.494;2022-11-20T04:24:32;60.75;54.73;67.75;;
74214;Laerm;62576;55.694;37.494;2022-11-20T04:27:02;61.89;56.55;68.94;;
74214;Laerm;62576;55.694;37.494;2022-11-20T04:29:32;60.18;54.87;67.86;;
74214;Laerm;62576;55.694;37.494;2022-11-20T04:32:02;62.04;56.25;68.08;;
74214;Laerm;62576;55.694;37.494;2022-11-20T04:34:32;62.25;55.36;68.23;;
74214;Laerm;62576;55.694;37.494;2022-11-20T04:37:03;61.94;55.77;69.21;;
74214;Laerm;62576;55.694;37.494;2022-11-20T04:39:34;63.25;57.11;71.04;;
74214;Laerm;62576;55.694;37.494;2022-11-20T04:42:04;63.83;56.79;70.53;;
74214;Laerm;62576;55.694;37.494;2022-11-20T04:44:51;61.09;55.81;68.66;;
74214;Laerm;62576;55.694;37.494;2022-11-20T04:47:22;60.45;55.04;66.21;;
74214;Laerm;62576;55.694;37.494;2022-11-20T04:49:52;61.13;56.07;67.56;;
74214;Laerm;62576;55.694;37.494;2022-11-20T04:52:21;63.55;55.95;71.55;;
74214;Laerm;62576;55.694;37.494;2022-11-20T04:54:53;63.44;56.27;70.79;;
74214;Laerm;62576;55.694;37.494;2022-11-20T04:57:23;63.21;57.46;68.60;;
74214;Laerm;62576;55.694;37.494;2022-11-20T04:59:53;64.83;58.35;73.05;;
74214;Laerm;62576;55.694;37.494;2022-11-20T05:02:23;65.26;58.27;79.89;;
74214;Laerm;62576;55.694;37.494;2022-11-20T05:04:53;64.79;58.97;71.05;;
74214;Laerm;62576;55.694;37.494;2022-11-20T05:07:22;65.99;58.88;71.71;;
74214;Laerm;62576;55.694;37.494;2022-11-20T05:09:54;65.52;58.08;74.43;;
74214;Laerm;62576;55.694;37.494;2022-11-20T05:12:24;64.20;57.36;70.44;;
74214;Laerm;62576;55.694;37.494;2022-11-20T05:14:54;61.92;55.62;67.94;;
74214;Laerm;62576;55.694;37.494;2022-11-20T05:17:23;63.95;57.80;71.21;;
74214;Laerm;62576;55.694;37.494;2022-11-20T05:19:53;62.63;55.29;68.45;;
74214;Laerm;62576;55.694;37.494;2022-11-20T05:22:23;63.35;57.01;70.18;;
74214;Laerm;62576;55.694;37.494;2022-11-20T05:24:54;62.33;56.24;68.53;;
74214;Laerm;62576;55.694;37.494;2022-11-20T05:27:24;64.59;57.59;72.49;;
74214;Laerm;62576;55.694;37.494;2022-11-20T05:29:54;63.62;57.08;69.60;;
74214;Laerm;62576;55.694;37.494;2022-11-20T05:32:24;61.84;55.58;68.28;;
74214;Laerm;62576;55.694;37.494;2022-11-20T05:34:54;65.36;58.31;71.98;;
74214;Laerm;62576;55.694;37.494;2022-11-20T05:37:24;62.94;56.25;70.29;;
74214;Laerm;62576;55.694;37.494;2022-11-20T05:39:53;63.29;56.87;71.99;;
74214;Laerm;62576;55.694;37.494;2022-11-20T05:42:24;63.28;56.85;71.32;;
74214;Laerm;62576;55.694;37.494;2022-11-20T05:45:05;62.55;56.04;70.10;;
74214;Laerm;62576;55.694;37.494;2022-11-20T05:47:35;62.70;56.03;68.02;;
74214;Laerm;62576;55.694;37.494;2022-11-20T05:50:05;62.99;56.60;69.00;;
74214;Laerm;62576;55.694;37.494;2022-11-20T05:52:35;62.76;56.89;69.88;;
74214;Laerm;62576;55.694;37.494;2022-11-20T05:55:06;63.09;56.61;69.44;;
74214;Laerm;62576;55.694;37.494;2022-11-20T05:57:38;63.89;55.71;70.65;;
74214;Laerm;62576;55.694;37.494;2022-11-20T06:00:09;63.08;56.20;68.84;;
74214;Laerm;62576;55.694;37.494;2022-11-20T06:02:39;63.67;58.04;68.95;;
74214;Laerm;62576;55.694;37.494;2022-11-20T06:05:09;64.38;55.81;71.47;;
74214;Laerm;62576;55.694;37.494;2022-11-20T06:07:39;64.02;57.82;75.51;;
74214;Laerm;62576;55.694;37.494;2022-11-20T06:10:09;62.63;55.37;68.85;;
74214;Laerm;62576;55.694;37.494;2022-11-20T06:12:41;62.16;56.54;67.73;;
74214;Laerm;62576;55.694;37.494;2022-11-20T06:15:11;61.57;56.21;67.31;;
74214;Laerm;62576;55.694;37.494;2022-11-20T06:17:40;63.33;56.72;70.95;;
74214;Laerm;62576;55.694;37.494;2022-11-20T06:20:10;62.64;57.26;71.07;;
74214;Laerm;62576;55.694;37.494;2022-11-20T06:22:40;63.59;57.67;69.64;;
74214;Laerm;62576;55.694;37.494;2022-11-20T06:25:10;64.33;56.03;77.04;;
74214;Laerm;62576;55.694;37.494;2022-11-20T06:27:42;64.76;58.46;72.06;;
74214;Laerm;62576;55.694;37.494;2022-11-20T06:30:12;64.27;58.05;70.90;;
74214;Laerm;62576;55.694;37.494;2022-11-20T06:32:42;63.16;57.89;68.34;;
74214;Laerm;62576;55.694;37.494;2022-11-20T06:35:13;65.62;57.06;76.63;;
74214;Laerm;62576;55.694;37.494;2022-11-20T06:37:43;63.38;58.11;77.55;;
74214;Laerm;62576;55.694;37.494;2022-11-20T06:40:13;68.10;57.33;78.36;;
74214;Laerm;62576;55.694;37.494;2022-11-20T06:42:45;65.39;57.33;70.56;;
74214;Laerm;62576;55.694;37.494;2022-11-20T06:45:15;65.97;57.60;70.50;;
74214;Laerm;62576;55.694;37.494;2022-11-20T06:47:45;66.72;58.94;73.96;;
74214;Laerm;62576;55.694;37.494;2022-11-20T06:50:14;68.20;59.71;74.01;;
74214;Laerm;62576;55.694;37.494;2022-11-20T06:52:44;64.55;59.29;72.22;;
74214;Laerm;62576;55.694;37.494;2022-11-20T06:55:14;65.11;59.75;70.48;;
74214;Laerm;62576;55.694;37.494;2022-11-20T06:57:47;68.58;61.39;76.47;;
74214;Laerm;62576;55.694;37.494;2022-11-20T07:00:17;67.85;61.05;74.68;;
74214;Laerm;62576;55.694;37.494;2022-11-20T07:02:47;65.63;59.11;71.82;;
74214;Laerm;62576;55.694;37.494;2022-11-20T07:05:20;65.42;59.40;73.34;;
74214;Laerm;62576;55.694;37.494;2022-11-20T07:07:50;64.24;57.86;70.16;;
74214;Laerm;62576;55.694;37.494;2022-11-20T07:10:19;65.41;58.59;70.37;;
74214;Laerm;62576;55.694;37.494;2022-11-20T07:12:53;66.16;60.13;71.55;;
74214;Laerm;62576;55.694;37.494;2022-11-20T07:15:24;65.31;59.58;73.42;;
74214;Laerm;62576;55.694;37.494;2022-11-20T07:17:54;65.32;59.21;69.50;;
74214;Laerm;62576;55.694;37.494;2022-11-20T07:20:26;65.33;58.69;71.40;;
74214;Laerm;62576;55.694;37.494;2022-11-20T07:22:57;65.53;59.20;71.62;;
74214;Laerm;62576;55.694;37.494;2022-11-20T07:25:28;65.86;59.42;70.98;;
74214;Laerm;62576;55.694;37.494;2022-11-20T07:28:00;65.39;57.66;71.61;;
74214;Laerm;62576;55.694;37.494;2022-11-20T07:30:31;65.42;59.39;70.81;;
74214;Laerm;62576;55.694;37.494;2022-11-20T07:33:00;66.74;59.88;72.07;;
74214;Laerm;62576;55.694;37.494;2022-11-20T07:35:30;69.26;61.47;88.06;;
74214;Laerm;62576;55.694;37.494;2022-11-20T07:38:00;65.55;58.36;70.79;;
74214;Laerm;62576;55.694;37.494;2022-11-20T07:40:27;63.88;58.27;69.81;;
74214;Laerm;62576;55.694;37.494;2022-11-20T07:42:57;66.68;58.47;78.53;;
74214;Laerm;62576;55.694;37.494;2022-11-20T07:45:28;65.11;58.91;72.38;;
74214;Laerm;62576;55.694;37.494;2022-11-20T07:47:59;65.82;59.01;71.16;;
74214;Laerm;62576;55.694;37.494;2022-11-20T07:50:29;65.66;58.35;71.28;;
74214;Laerm;62576;55.694;37.494;2022-11-20T07:53:03;65.21;58.31;72.92;;
74214;Laerm;62576;55.694;37.494;2022-11-20T07:55:34;65.32;58.58;70.89;;
74214;Laerm;62576;55.694;37.494;2022-11-20T07:58:04;65.55;57.92;73.89;;
74214;Laerm;62576;55.694;37.494;2022-11-20T08:00:36;66.78;60.61;74.98;;
74214;Laerm;62576;55.694;37.494;2022-11-20T08:03:06;65.28;59.30;71.20;;
74214;Laerm;62576;55.694;37.494;2022-11-20T08:05:37;65.41;59.25;70.01;;
74214;Laerm;62576;55.694;37.494;2022-11-20T08:08:07;65.96;60.06;71.20;;
74214;Laerm;62576;55.694;37.494;2022-11-20T08:10:38;66.36;59.08;73.24;;
74214;Laerm;62576;55.694;37.494;2022-11-20T08:13:08;66.76;58.59;75.66;;
74214;Laerm;62576;55.694;37.494;2022-11-20T08:15:57;66.31;58.38;74.85;;
74214;Laerm;62576;55.694;37.494;2022-11-20T08:18:27;67.65;61.59;76.55;;
74214;Laerm;62576;55.694;37.494;2022-11-20T08:21:02;66.25;58.23;74.17;;
74214;Laerm;62576;55.694;37.494;2022-11-20T08:23:32;66.46;56.78;72.72;;
74214;Laerm;62576;55.694;37.494;2022-11-20T08:26:02;67.81;60.32;76.02;;
74214;Laerm;62576;55.694;37.494;2022-11-20T08:28:32;66.28;59.17;72.62;;
74214;Laerm;62576;55.694;37.494;2022-11-20T08:31:04;66.54;60.69;71.82;;
74214;Laerm;62576;55.694;37.494;2022-11-20T08:33:34;66.47;58.99;73.26;;
74214;Laerm;62576;55.694;37.494;2022-11-20T08:36:05;66.37;59.07;73.21;;
74214;Laerm;62576;55.694;37.494;2022-11-20T08:38:35;65.72;58.16;71.56;;
74214;Laerm;62576;55.694;37.494;2022-11-20T08:41:08;66.64;57.27;77.07;;
74214;Laerm;62576;55.694;37.494;2022-11-20T08:43:59;66.44;58.55;73.69;;
74214;Laerm;62576;55.694;37.494;2022-11-20T08:46:34;67.00;58.92;76.54;;
74214;Laerm;62576;55.694;37.494;2022-11-20T08:49:06;67.99;59.87;74.45;;
74214;Laerm;62576;55.694;37.494;2022-11-20T08:51:37;68.42;61.67;74.65;;
74214;Laerm;62576;55.694;37.494;2022-11-20T08:54:08;69.05;61.35;75.46;;
74214;Laerm;62576;55.694;37.494;2022-11-20T08:56:38;69.31;62.36;75.96;;
74214;Laerm;62576;55.694;37.494;2022-11-20T08:59:08;69.79;61.86;84.04;;
74214;Laerm;62576;55.694;37.494;2022-11-20T09:01:39;69.39;62.21;75.42;;
74214;Laerm;62576;55.694;37.494;2022-11-20T09:04:11;66.79;57.61;72.11;;
74214;Laerm;62576;55.694;37.494;2022-11-20T09:06:44;67.23;60.04;73.58;;
74214;Laerm;62576;55.694;37.494;2022-11-20T09:09:14;66.55;58.49;71.83;;
74214;Laerm;62576;55.694;37.494;2022-11-20T09:11:44;66.38;57.89;71.29;;
74214;Laerm;62576;55.694;37.494;2022-11-20T09:14:14;68.82;59.44;88.03;;
74214;Laerm;62576;55.694;37.494;2022-11-20T09:16:46;67.18;59.68;77.21;;
74214;Laerm;62576;55.694;37.494;2022-11-20T09:19:16;66.62;59.23;73.12;;
74214;Laerm;62576;55.694;37.494;2022-11-20T09:21:45;66.01;59.21;72.40;;
74214;Laerm;62576;55.694;37.494;2022-11-20T09:24:16;67.25;58.49;73.48;;
74214;Laerm;62576;55.694;37.494;2022-11-20T09:26:46;67.08;57.37;78.75;;
74214;Laerm;62576;55.694;37.494;2022-11-20T09:29:15;65.92;56.96;72.99;;
74214;Laerm;62576;55.694;37.494;2022-11-20T09:31:47;65.66;57.89;70.60;;
74214;Laerm;62576;55.694;37.494;2022-11-20T09:34:17;66.73;57.74;71.37;;
74214;Laerm;62576;55.694;37.494;2022-11-20T09:36:46;66.46;60.54;71.11;;
74214;Laerm;62576;55.694;37.494;2022-11-20T09:39:17;65.75;57.85;71.24;;
74214;Laerm;62576;55.694;37.494;2022-11-20T09:41:56;66.77;59.20;76.22;;
74214;Laerm;62576;55.694;37.494;2022-11-20T09:47:36;67.12;61.48;73.30;;
74214;Laerm;62576;55.694;37.494;2022-11-20T09:50:21;66.14;58.39;70.99;;
74214;Laerm;62576;55.694;37.494;2022-11-20T09:53:13;66.81;58.95;72.35;;
74214;Laerm;62576;55.694;37.494;2022-11-20T09:55:46;66.67;57.58;74.20;;
74214;Laerm;62576;55.694;37.494;2022-11-20T09:58:25;67.36;60.59;73.04;;
74214;Laerm;62576;55.694;37.494;2022-11-20T10:01:03;67.55;60.51;73.14;;
74214;Laerm;62576;55.694;37.494;2022-11-20T10:03:46;67.48;59.85;76.60;;
74214;Laerm;62576;55.694;37.494;2022-11-20T10:06:23;66.37;59.46;72.76;;
74214;Laerm;62576;55.694;37.494;2022-11-20T10:09:04;67.10;57.73;72.32;;
74214;Laerm;62576;55.694;37.494;2022-11-20T10:11:43;67.02;60.19;72.78;;
74214;Laerm;62576;55.694;37.494;2022-11-20T10:14:23;66.56;57.70;71.05;;
74214;Laerm;62576;55.694;37.494;2022-11-20T10:17:03;67.23;59.38;75.78;;
74214;Laerm;62576;55.694;37.494;2022-11-20T10:19:47;66.00;59.00;74.44;;
74214;Laerm;62576;55.694;37.494;2022-11-20T10:22:35;66.63;59.34;71.92;;
74214;Laerm;62576;55.694;37.494;2022-11-20T10:25:13;67.88;58.80;76.43;;
74214;Laerm;62576;55.694;37.494;2022-11-20T10:28:02;66.82;58.50;73.17;;
74214;Laerm;62576;55.694;37.494;2022-11-20T10:30:40;66.26;58.50;71.29;;
74214;Laerm;62576;55.694;37.494;2022-11-20T10:33:16;67.76;60.49;71.69;;
74214;Laerm;62576;55.694;37.494;2022-11-20T10:35:54;67.31;59.91;73.64;;
74214;Laerm;62576;55.694;37.494;2022-11-20T10:38:34;66.39;58.91;72.49;;
74214;Laerm;62576;55.694;37.494;2022-11-20T10:41:07;67.28;60.24;74.11;;
74214;Laerm;62576;55.694;37.494;2022-11-20T10:44:02;66.87;59.59;75.68;;
74214;Laerm;62576;55.694;37.494;2022-11-20T10:46:38;67.46;61.30;71.55;;
74214;Laerm;62576;55.694;37.494;2022-11-20T10:49:27;66.31;58.36;71.78;;
74214;Laerm;62576;55.694;37.494;2022-11-20T10:52:04;67.50;61.39;78.56;;
74214;Laerm;62576;55.694;37.494;2022-11-20T10:54:44;67.35;59.26;71.89;;
74214;Laerm;62576;55.694;37.494;2022-11-20T10:57:24;67.50;61.57;71.27;;
74214;Laerm;62576;55.694;37.494;2022-11-20T11:00:01;66.84;59.51;71.80;;
74214;Laerm;62576;55.694;37.494;2022-11-20T11:02:40;67.68;59.96;75.26;;
74214;Laerm;62576;55.694;37.494;2022-11-20T11:05:22;66.70;59.17;71.87;;
74214;Laerm;62576;55.694;37.494;2022-11-20T11:07:56;67.17;58.37;71.42;;
74214;Laerm;62576;55.694;37.494;2022-11-20T11:10:29;68.07;60.11;76.45;;
74214;Laerm;62576;55.694;37.494;2022-11-20T11:13:03;68.02;60.94;84.72;;
74214;Laerm;62576;55.694;37.494;2022-11-20T11:15:38;66.75;60.98;71.90;;
74214;Laerm;62576;55.694;37.494;2022-11-20T11:18:09;67.11;59.55;71.64;;
74214;Laerm;62576;55.694;37.494;2022-11-20T11:20:50;67.98;61.81;79.80;;
74214;Laerm;62576;55.694;37.494;2022-11-20T11:23:37;66.14;59.50;71.24;;
74214;Laerm;62576;55.694;37.494;2022-11-20T11:26:20;66.68;60.82;71.69;;
74214;Laerm;62576;55.694;37.494;2022-11-20T11:28:55;66.54;61.00;70.67;;
74214;Laerm;62576;55.694;37.494;2022-11-20T11:31:27;68.93;60.48;86.96;;
74214;Laerm;62576;55.694;37.494;2022-11-20T11:34:13;67.58;62.44;73.30;;
74214;Laerm;62576;55.694;37.494;2022-11-20T11:37:00;66.62;58.88;70.59;;
74214;Laerm;62576;55.694;37.494;2022-11-20T11:39:33;67.42;62.19;73.22;;
74214;Laerm;62576;55.694;37.494;2022-11-20T11:42:03;66.52;58.44;72.13;;
74214;Laerm;62576;55.694;37.494;2022-11-20T11:44:34;67.54;62.04;81.61;;
74214;Laerm;62576;55.694;37.494;2022-11-20T11:47:23;67.58;59.78;72.10;;
74214;Laerm;62576;55.694;37.494;2022-11-20T11:50:13;67.42;61.12;77.68;;
74214;Laerm;62576;55.694;37.494;2022-11-20T11:52:47;67.00;62.40;72.95;;
74214;Laerm;62576;55.694;37.494;2022-11-20T11:55:27;66.94;61.50;71.72;;
74214;Laerm;62576;55.694;37.494;2022-11-20T11:58:09;68.58;61.79;83.84;;
74214;Laerm;62576;55.694;37.494;2022-11-20T12:00:51;67.83;61.72;74.22;;
74214;Laerm;62576;55.694;37.494;2022-11-20T12:03:27;68.10;60.32;79.47;;
74214;Laerm;62576;55.694;37.494;2022-11-20T12:06:05;66.79;59.05;71.28;;
74214;Laerm;62576;55.694;37.494;2022-11-20T12:08:43;66.93;60.64;73.34;;
74214;Laerm;62576;55.694;37.494;2022-11-20T12:11:30;66.73;59.04;77.08;;
74214;Laerm;62576;55.694;37.494;2022-11-20T12:14:04;67.60;60.35;74.46;;
74214;Laerm;62576;55.694;37.494;2022-11-20T12:16:39;66.14;58.75;72.62;;
74214;Laerm;62576;55.694;37.494;2022-11-20T12:19:12;67.51;62.08;74.72;;
74214;Laerm;62576;55.694;37.494;2022-11-20T12:21:45;66.02;60.70;71.30;;
74214;Laerm;62576;55.694;37.494;2022-11-20T12:24:42;67.34;57.46;73.76;;
74214;Laerm;62576;55.694;37.494;2022-11-20T12:27:39;67.18;58.92;73.52;;
74214;Laerm;62576;55.694;37.494;2022-11-20T12:30:13;66.84;60.74;71.81;;
74214;Laerm;62576;55.694;37.494;2022-11-20T12:32:58;66.10;59.48;73.00;;
74214;Laerm;62576;55.694;37.494;2022-11-20T12:35:56;66.33;57.88;75.88;;
74214;Laerm;62576;55.694;37.494;2022-11-20T12:38:45;68.07;59.75;83.59;;
74214;Laerm;62576;55.694;37.494;2022-11-20T12:41:32;66.87;58.72;72.86;;
74214;Laerm;62576;55.694;37.494;2022-11-20T12:44:39;66.99;60.05;78.64;;
74214;Laerm;62576;55.694;37.494;2022-11-20T12:47:35;66.44;59.99;71.09;;
74214;Laerm;62576;55.694;37.494;2022-11-20T12:50:14;67.36;60.68;75.73;;
74214;Laerm;62576;55.694;37.494;2022-11-20T12:52:49;66.19;59.21;76.00;;
74214;Laerm;62576;55.694;37.494;2022-11-20T12:55:31;66.77;59.95;72.60;;
74214;Laerm;62576;55.694;37.494;2022-11-20T12:58:08;66.18;58.00;71.16;;
74214;Laerm;62576;55.694;37.494;2022-11-20T13:00:50;66.58;59.96;73.18;;
74214;Laerm;62576;55.694;37.494;2022-11-20T13:03:38;66.82;60.70;77.15;;
74214;Laerm;62576;55.694;37.494;2022-11-20T13:06:14;65.79;60.19;74.65;;
74214;Laerm;62576;55.694;37.494;2022-11-20T13:08:48;66.32;59.34;72.64;;
74214;Laerm;62576;55.694;37.494;2022-11-20T13:11:24;66.70;60.71;71.96;;
74214;Laerm;62576;55.694;37.494;2022-11-20T13:14:13;66.73;59.71;71.64;;
74214;Laerm;62576;55.694;37.494;2022-11-20T13:16:55;66.87;59.75;72.57;;
74214;Laerm;62576;55.694;37.494;2022-11-20T13:19:28;67.25;60.68;72.53;;
74214;Laerm;62576;55.694;37.494;2022-11-20T13:21:59;65.16;60.57;71.57;;
74214;Laerm;62576;55.694;37.494;2022-11-20T13:24:31;66.60;62.17;71.43;;
74214;Laerm;62576;55.694;37.494;2022-11-20T13:27:18;66.60;61.62;70.90;;
74214;Laerm;62576;55.694;37.494;2022-11-20T13:30:12;66.40;61.04;70.70;;
74214;Laerm;62576;55.694;37.494;2022-11-20T13:32:54;66.09;58.70;70.63;;
74214;Laerm;62576;55.694;37.494;2022-11-20T13:35:27;66.14;60.96;70.08;;
74214;Laerm;62576;55.694;37.494;2022-11-20T13:38:04;66.25;60.12;72.06;;
74214;Laerm;62576;55.694;37.494;2022-11-20T13:40:32;66.81;60.77;72.04;;
74214;Laerm;62576;55.694;37.494;2022-11-20T13:43:10;66.16;59.26;73.35;;
74214;Laerm;62576;55.694;37.494;2022-11-20T13:45:40;65.55;60.36;69.66;;
74214;Laerm;62576;55.694;37.494;2022-11-20T13:48:29;67.02;61.57;78.48;;
74214;Laerm;62576;55.694;37.494;2022-11-20T13:51:06;65.65;59.96;74.09;;
74214;Laerm;62576;55.694;37.494;2022-11-20T13:56:58;68.88;59.96;77.32;;
74214;Laerm;62576;55.694;37.494;2022-11-20T13:59:43;66.73;58.95;71.28;;
74214;Laerm;62576;55.694;37.494;2022-11-20T14:02:19;66.35;60.01;71.53;;
74214;Laerm;62576;55.694;37.494;2022-11-20T14:04:54;66.19;60.72;71.80;;
74214;Laerm;62576;55.694;37.494;2022-11-20T14:07:32;65.36;60.03;69.91;;
74214;Laerm;62576;55.694;37.494;2022-11-20T14:10:05;65.71;59.36;69.43;;
74214;Laerm;62576;55.694;37.494;2022-11-20T14:12:35;65.94;60.73;70.51;;
74214;Laerm;62576;55.694;37.494;2022-11-20T14:15:05;66.32;57.74;72.93;;
74214;Laerm;62576;55.694;37.494;2022-11-20T14:17:36;65.81;59.52;71.64;;